sensor_id;sensor_type;location;lat;lon;timestamp;P1;durP1;ratioP1;P2;durP2;ratioP2
49854;SDS011;35752;52.164;21.244;2023-01-28T00:02:19;75.38;;;37.35;;
49854;SDS011;35752;52.164;21.244;2023-01-28T00:04:45;80.82;;;40.42;;
49854;SDS011;35752;52.164;21.244;2023-01-28T00:07:10;80.03;;;41.22;;
49854;SDS011;35752;52.164;21.244;2023-01-28T00:09:36;75.78;;;38.72;;
49854;SDS011;35752;52.164;21.244;2023-01-28T00:12:03;76.78;;;39.00;;
49854;SDS011;35752;52.164;21.244;2023-01-28T00:14:29;74.97;;;39.03;;
49854;SDS011;35752;52.164;21.244;2023-01-28T00:16:55;77.85;;;39.65;;
49854;SDS011;35752;52.164;21.244;2023-01-28T00:19:21;71.57;;;39.03;;
49854;SDS011;35752;52.164;21.244;2023-01-28T00:21:47;70.50;;;37.15;;
49854;SDS011;35752;52.164;21.244;2023-01-28T00:24:12;78.18;;;38.22;;
49854;SDS011;35752;52.164;21.244;2023-01-28T00:26:38;74.32;;;37.17;;
49854;SDS011;35752;52.164;21.244;2023-01-28T00:29:04;74.22;;;37.33;;
49854;SDS011;35752;52.164;21.244;2023-01-28T00:31:30;75.78;;;39.17;;
49854;SDS011;35752;52.164;21.244;2023-01-28T00:33:58;70.65;;;37.80;;
49854;SDS011;35752;52.164;21.244;2023-01-28T00:36:24;71.80;;;35.80;;
49854;SDS011;35752;52.164;21.244;2023-01-28T00:38:54;67.80;;;37.75;;
49854;SDS011;35752;52.164;21.244;2023-01-28T00:41:23;69.53;;;36.20;;
49854;SDS011;35752;52.164;21.244;2023-01-28T00:43:53;65.18;;;35.88;;
49854;SDS011;35752;52.164;21.244;2023-01-28T00:46:19;71.63;;;36.65;;
49854;SDS011;35752;52.164;21.244;2023-01-28T00:48:47;67.20;;;37.22;;
49854;SDS011;35752;52.164;21.244;2023-01-28T00:51:14;62.55;;;34.72;;
49854;SDS011;35752;52.164;21.244;2023-01-28T00:53:44;68.28;;;36.85;;
49854;SDS011;35752;52.164;21.244;2023-01-28T00:56:12;63.13;;;34.92;;
49854;SDS011;35752;52.164;21.244;2023-01-28T00:58:39;69.10;;;36.97;;
49854;SDS011;35752;52.164;21.244;2023-01-28T01:01:08;66.65;;;36.35;;
49854;SDS011;35752;52.164;21.244;2023-01-28T01:03:42;67.10;;;35.58;;
49854;SDS011;35752;52.164;21.244;2023-01-28T01:06:09;69.43;;;35.75;;
49854;SDS011;35752;52.164;21.244;2023-01-28T01:08:36;67.45;;;37.72;;
49854;SDS011;35752;52.164;21.244;2023-01-28T01:11:06;68.85;;;35.80;;
49854;SDS011;35752;52.164;21.244;2023-01-28T01:13:33;66.40;;;35.10;;
49854;SDS011;35752;52.164;21.244;2023-01-28T01:16:09;64.18;;;34.92;;
49854;SDS011;35752;52.164;21.244;2023-01-28T01:18:37;68.55;;;36.38;;
49854;SDS011;35752;52.164;21.244;2023-01-28T01:21:07;66.60;;;35.77;;
49854;SDS011;35752;52.164;21.244;2023-01-28T01:23:37;68.78;;;35.50;;
49854;SDS011;35752;52.164;21.244;2023-01-28T01:26:03;66.80;;;33.97;;
49854;SDS011;35752;52.164;21.244;2023-01-28T01:28:30;70.22;;;36.33;;
49854;SDS011;35752;52.164;21.244;2023-01-28T01:31:00;62.53;;;34.72;;
49854;SDS011;35752;52.164;21.244;2023-01-28T01:33:27;66.60;;;35.25;;
49854;SDS011;35752;52.164;21.244;2023-01-28T01:35:54;69.05;;;34.85;;
49854;SDS011;35752;52.164;21.244;2023-01-28T01:38:20;65.28;;;37.13;;
49854;SDS011;35752;52.164;21.244;2023-01-28T01:40:46;66.70;;;35.95;;
49854;SDS011;35752;52.164;21.244;2023-01-28T01:43:16;70.10;;;36.60;;
49854;SDS011;35752;52.164;21.244;2023-01-28T01:45:47;61.05;;;34.83;;
49854;SDS011;35752;52.164;21.244;2023-01-28T01:48:23;62.28;;;35.60;;
49854;SDS011;35752;52.164;21.244;2023-01-28T01:50:56;61.97;;;33.15;;
49854;SDS011;35752;52.164;21.244;2023-01-28T01:53:26;63.78;;;34.15;;
49854;SDS011;35752;52.164;21.244;2023-01-28T01:55:55;63.25;;;33.97;;
49854;SDS011;35752;52.164;21.244;2023-01-28T01:58:25;61.80;;;33.33;;
49854;SDS011;35752;52.164;21.244;2023-01-28T02:00:54;60.55;;;32.95;;
49854;SDS011;35752;52.164;21.244;2023-01-28T02:03:23;58.20;;;32.45;;
49854;SDS011;35752;52.164;21.244;2023-01-28T02:05:53;63.13;;;33.75;;
49854;SDS011;35752;52.164;21.244;2023-01-28T02:08:19;59.10;;;32.92;;
49854;SDS011;35752;52.164;21.244;2023-01-28T02:10:49;60.13;;;33.88;;
49854;SDS011;35752;52.164;21.244;2023-01-28T02:13:21;57.78;;;31.85;;
49854;SDS011;35752;52.164;21.244;2023-01-28T02:15:51;64.22;;;34.88;;
49854;SDS011;35752;52.164;21.244;2023-01-28T02:18:17;65.75;;;36.08;;
49854;SDS011;35752;52.164;21.244;2023-01-28T02:23:45;64.60;;;34.63;;
49854;SDS011;35752;52.164;21.244;2023-01-28T02:28:43;63.00;;;31.75;;
49854;SDS011;35752;52.164;21.244;2023-01-28T02:36:43;56.42;;;32.03;;
49854;SDS011;35752;52.164;21.244;2023-01-28T02:39:29;54.88;;;30.65;;
49854;SDS011;35752;52.164;21.244;2023-01-28T02:42:06;58.45;;;32.45;;
49854;SDS011;35752;52.164;21.244;2023-01-28T02:44:37;62.53;;;31.80;;
49854;SDS011;35752;52.164;21.244;2023-01-28T02:47:08;59.13;;;32.58;;
49854;SDS011;35752;52.164;21.244;2023-01-28T02:49:54;60.70;;;32.38;;
49854;SDS011;35752;52.164;21.244;2023-01-28T02:52:37;56.17;;;31.70;;
49854;SDS011;35752;52.164;21.244;2023-01-28T02:58:34;55.83;;;30.73;;
49854;SDS011;35752;52.164;21.244;2023-01-28T03:06:38;61.47;;;33.47;;
49854;SDS011;35752;52.164;21.244;2023-01-28T03:09:08;61.58;;;32.05;;
49854;SDS011;35752;52.164;21.244;2023-01-28T03:14:41;57.40;;;31.02;;
49854;SDS011;35752;52.164;21.244;2023-01-28T03:17:33;61.45;;;31.80;;
49854;SDS011;35752;52.164;21.244;2023-01-28T03:20:33;64.38;;;32.58;;
49854;SDS011;35752;52.164;21.244;2023-01-28T03:23:27;61.65;;;31.77;;
49854;SDS011;35752;52.164;21.244;2023-01-28T03:26:31;66.65;;;31.67;;
49854;SDS011;35752;52.164;21.244;2023-01-28T03:29:21;66.50;;;33.80;;
49854;SDS011;35752;52.164;21.244;2023-01-28T03:32:08;63.30;;;32.70;;
49854;SDS011;35752;52.164;21.244;2023-01-28T03:34:54;66.10;;;32.20;;
49854;SDS011;35752;52.164;21.244;2023-01-28T03:37:38;58.65;;;31.17;;
49854;SDS011;35752;52.164;21.244;2023-01-28T03:40:05;62.67;;;31.70;;
49854;SDS011;35752;52.164;21.244;2023-01-28T03:42:32;66.97;;;30.88;;
49854;SDS011;35752;52.164;21.244;2023-01-28T03:44:58;63.45;;;32.17;;
49854;SDS011;35752;52.164;21.244;2023-01-28T03:47:26;61.05;;;31.08;;
49854;SDS011;35752;52.164;21.244;2023-01-28T03:49:54;64.20;;;31.63;;
49854;SDS011;35752;52.164;21.244;2023-01-28T03:52:22;55.47;;;30.20;;
49854;SDS011;35752;52.164;21.244;2023-01-28T03:54:49;56.28;;;30.02;;
49854;SDS011;35752;52.164;21.244;2023-01-28T03:57:18;60.97;;;31.45;;
49854;SDS011;35752;52.164;21.244;2023-01-28T03:59:46;56.07;;;29.03;;
49854;SDS011;35752;52.164;21.244;2023-01-28T04:02:14;62.83;;;29.98;;
49854;SDS011;35752;52.164;21.244;2023-01-28T04:04:40;55.28;;;30.08;;
49854;SDS011;35752;52.164;21.244;2023-01-28T04:07:07;62.25;;;30.48;;
49854;SDS011;35752;52.164;21.244;2023-01-28T04:09:37;51.33;;;28.42;;
49854;SDS011;35752;52.164;21.244;2023-01-28T04:12:03;59.55;;;30.35;;
49854;SDS011;35752;52.164;21.244;2023-01-28T04:14:29;53.25;;;28.80;;
49854;SDS011;35752;52.164;21.244;2023-01-28T04:16:55;58.00;;;28.83;;
49854;SDS011;35752;52.164;21.244;2023-01-28T04:19:21;53.05;;;28.77;;
49854;SDS011;35752;52.164;21.244;2023-01-28T04:21:48;58.15;;;30.48;;
49854;SDS011;35752;52.164;21.244;2023-01-28T04:24:15;55.17;;;29.73;;
49854;SDS011;35752;52.164;21.244;2023-01-28T04:26:40;49.67;;;26.92;;
49854;SDS011;35752;52.164;21.244;2023-01-28T04:29:06;56.63;;;28.48;;
49854;SDS011;35752;52.164;21.244;2023-01-28T04:31:32;54.88;;;28.35;;
49854;SDS011;35752;52.164;21.244;2023-01-28T04:33:58;56.20;;;28.70;;
49854;SDS011;35752;52.164;21.244;2023-01-28T04:36:25;52.95;;;28.55;;
49854;SDS011;35752;52.164;21.244;2023-01-28T04:38:51;53.35;;;28.42;;
49854;SDS011;35752;52.164;21.244;2023-01-28T04:41:17;51.33;;;26.85;;
49854;SDS011;35752;52.164;21.244;2023-01-28T04:43:43;51.10;;;28.38;;
49854;SDS011;35752;52.164;21.244;2023-01-28T04:46:09;50.42;;;26.20;;
49854;SDS011;35752;52.164;21.244;2023-01-28T04:48:35;47.03;;;24.98;;
49854;SDS011;35752;52.164;21.244;2023-01-28T04:51:03;44.05;;;25.08;;
49854;SDS011;35752;52.164;21.244;2023-01-28T04:53:29;45.53;;;24.75;;
49854;SDS011;35752;52.164;21.244;2023-01-28T04:55:55;46.13;;;26.20;;
49854;SDS011;35752;52.164;21.244;2023-01-28T04:58:21;43.65;;;24.67;;
49854;SDS011;35752;52.164;21.244;2023-01-28T05:00:52;43.58;;;24.55;;
49854;SDS011;35752;52.164;21.244;2023-01-28T05:03:22;39.40;;;23.30;;
49854;SDS011;35752;52.164;21.244;2023-01-28T05:05:47;41.90;;;24.10;;
49854;SDS011;35752;52.164;21.244;2023-01-28T05:08:13;46.45;;;25.45;;
49854;SDS011;35752;52.164;21.244;2023-01-28T05:10:39;42.15;;;22.63;;
49854;SDS011;35752;52.164;21.244;2023-01-28T05:13:05;43.35;;;24.42;;
49854;SDS011;35752;52.164;21.244;2023-01-28T05:15:30;38.75;;;23.30;;
49854;SDS011;35752;52.164;21.244;2023-01-28T05:17:56;38.65;;;22.20;;
49854;SDS011;35752;52.164;21.244;2023-01-28T05:20:22;37.92;;;21.65;;
49854;SDS011;35752;52.164;21.244;2023-01-28T05:22:48;35.38;;;20.80;;
49854;SDS011;35752;52.164;21.244;2023-01-28T05:25:14;40.40;;;22.13;;
49854;SDS011;35752;52.164;21.244;2023-01-28T05:27:39;39.35;;;22.27;;
49854;SDS011;35752;52.164;21.244;2023-01-28T05:30:05;37.70;;;23.55;;
49854;SDS011;35752;52.164;21.244;2023-01-28T05:32:31;39.17;;;22.92;;
49854;SDS011;35752;52.164;21.244;2023-01-28T05:34:57;36.28;;;22.50;;
49854;SDS011;35752;52.164;21.244;2023-01-28T05:37:22;36.75;;;22.20;;
49854;SDS011;35752;52.164;21.244;2023-01-28T05:39:48;36.00;;;21.52;;
49854;SDS011;35752;52.164;21.244;2023-01-28T05:42:14;38.72;;;21.95;;
49854;SDS011;35752;52.164;21.244;2023-01-28T05:44:40;37.13;;;21.80;;
49854;SDS011;35752;52.164;21.244;2023-01-28T05:47:06;36.33;;;22.15;;
49854;SDS011;35752;52.164;21.244;2023-01-28T05:49:31;36.50;;;22.05;;
49854;SDS011;35752;52.164;21.244;2023-01-28T05:51:57;32.55;;;21.42;;
49854;SDS011;35752;52.164;21.244;2023-01-28T05:54:23;40.40;;;22.73;;
49854;SDS011;35752;52.164;21.244;2023-01-28T05:56:48;37.20;;;23.48;;
49854;SDS011;35752;52.164;21.244;2023-01-28T05:59:14;36.88;;;21.75;;
49854;SDS011;35752;52.164;21.244;2023-01-28T06:01:40;36.45;;;22.45;;
49854;SDS011;35752;52.164;21.244;2023-01-28T06:04:05;39.60;;;22.75;;
49854;SDS011;35752;52.164;21.244;2023-01-28T06:06:31;37.63;;;22.25;;
49854;SDS011;35752;52.164;21.244;2023-01-28T06:08:57;38.20;;;22.55;;
49854;SDS011;35752;52.164;21.244;2023-01-28T06:11:23;36.38;;;21.45;;
49854;SDS011;35752;52.164;21.244;2023-01-28T06:13:48;36.95;;;21.10;;
49854;SDS011;35752;52.164;21.244;2023-01-28T06:16:14;36.28;;;22.05;;
49854;SDS011;35752;52.164;21.244;2023-01-28T06:18:40;36.67;;;21.30;;
49854;SDS011;35752;52.164;21.244;2023-01-28T06:21:06;40.10;;;22.52;;
49854;SDS011;35752;52.164;21.244;2023-01-28T06:23:32;38.42;;;22.02;;
49854;SDS011;35752;52.164;21.244;2023-01-28T06:25:58;38.55;;;22.15;;
49854;SDS011;35752;52.164;21.244;2023-01-28T06:28:23;38.05;;;21.38;;
49854;SDS011;35752;52.164;21.244;2023-01-28T06:30:50;41.90;;;22.27;;
49854;SDS011;35752;52.164;21.244;2023-01-28T06:33:17;38.28;;;20.48;;
49854;SDS011;35752;52.164;21.244;2023-01-28T06:35:43;37.90;;;21.08;;
49854;SDS011;35752;52.164;21.244;2023-01-28T06:38:09;34.40;;;20.55;;
49854;SDS011;35752;52.164;21.244;2023-01-28T06:40:35;35.15;;;20.10;;
49854;SDS011;35752;52.164;21.244;2023-01-28T06:43:02;40.42;;;22.23;;
49854;SDS011;35752;52.164;21.244;2023-01-28T06:45:28;37.55;;;21.13;;
49854;SDS011;35752;52.164;21.244;2023-01-28T06:47:53;43.53;;;21.40;;
49854;SDS011;35752;52.164;21.244;2023-01-28T06:50:19;44.22;;;23.52;;
49854;SDS011;35752;52.164;21.244;2023-01-28T06:52:45;41.08;;;23.25;;
49854;SDS011;35752;52.164;21.244;2023-01-28T06:55:10;44.97;;;24.35;;
49854;SDS011;35752;52.164;21.244;2023-01-28T06:57:39;44.72;;;24.13;;
49854;SDS011;35752;52.164;21.244;2023-01-28T07:00:06;38.20;;;20.58;;
49854;SDS011;35752;52.164;21.244;2023-01-28T07:02:34;44.67;;;23.48;;
49854;SDS011;35752;52.164;21.244;2023-01-28T07:05:01;42.53;;;21.95;;
49854;SDS011;35752;52.164;21.244;2023-01-28T07:07:27;39.90;;;21.80;;
49854;SDS011;35752;52.164;21.244;2023-01-28T07:09:53;38.85;;;21.38;;
49854;SDS011;35752;52.164;21.244;2023-01-28T07:12:19;43.10;;;23.05;;
49854;SDS011;35752;52.164;21.244;2023-01-28T07:14:44;40.47;;;22.80;;
49854;SDS011;35752;52.164;21.244;2023-01-28T07:17:10;42.83;;;23.38;;
49854;SDS011;35752;52.164;21.244;2023-01-28T07:19:36;41.03;;;23.45;;
49854;SDS011;35752;52.164;21.244;2023-01-28T07:22:01;39.58;;;21.83;;
49854;SDS011;35752;52.164;21.244;2023-01-28T07:24:28;41.47;;;21.15;;
49854;SDS011;35752;52.164;21.244;2023-01-28T07:26:54;37.65;;;20.80;;
49854;SDS011;35752;52.164;21.244;2023-01-28T07:29:20;43.97;;;21.98;;
49854;SDS011;35752;52.164;21.244;2023-01-28T07:31:45;39.53;;;22.73;;
49854;SDS011;35752;52.164;21.244;2023-01-28T07:34:11;43.40;;;24.58;;
49854;SDS011;35752;52.164;21.244;2023-01-28T07:36:37;43.33;;;22.40;;
49854;SDS011;35752;52.164;21.244;2023-01-28T07:39:03;39.63;;;22.60;;
49854;SDS011;35752;52.164;21.244;2023-01-28T07:41:31;42.28;;;22.83;;
49854;SDS011;35752;52.164;21.244;2023-01-28T07:43:57;38.88;;;20.85;;
49854;SDS011;35752;52.164;21.244;2023-01-28T07:46:22;46.55;;;23.00;;
49854;SDS011;35752;52.164;21.244;2023-01-28T07:48:48;45.70;;;23.15;;
49854;SDS011;35752;52.164;21.244;2023-01-28T07:51:14;43.50;;;21.92;;
49854;SDS011;35752;52.164;21.244;2023-01-28T07:53:40;44.90;;;22.70;;
49854;SDS011;35752;52.164;21.244;2023-01-28T07:56:05;51.53;;;27.08;;
49854;SDS011;35752;52.164;21.244;2023-01-28T07:58:31;50.53;;;24.73;;
49854;SDS011;35752;52.164;21.244;2023-01-28T08:00:58;44.97;;;23.05;;
49854;SDS011;35752;52.164;21.244;2023-01-28T08:03:25;50.22;;;25.83;;
49854;SDS011;35752;52.164;21.244;2023-01-28T08:05:52;41.25;;;21.95;;
49854;SDS011;35752;52.164;21.244;2023-01-28T08:08:20;41.05;;;22.20;;
49854;SDS011;35752;52.164;21.244;2023-01-28T08:10:49;48.83;;;24.65;;
49854;SDS011;35752;52.164;21.244;2023-01-28T08:13:15;48.00;;;23.30;;
49854;SDS011;35752;52.164;21.244;2023-01-28T08:15:42;42.80;;;22.30;;
49854;SDS011;35752;52.164;21.244;2023-01-28T08:18:09;50.53;;;25.10;;
49854;SDS011;35752;52.164;21.244;2023-01-28T08:20:39;46.13;;;25.67;;
49854;SDS011;35752;52.164;21.244;2023-01-28T08:23:16;43.58;;;23.48;;
49854;SDS011;35752;52.164;21.244;2023-01-28T08:25:43;45.45;;;22.63;;
49854;SDS011;35752;52.164;21.244;2023-01-28T08:28:09;44.80;;;24.40;;
49854;SDS011;35752;52.164;21.244;2023-01-28T08:30:36;43.63;;;22.23;;
49854;SDS011;35752;52.164;21.244;2023-01-28T08:33:02;39.53;;;22.75;;
49854;SDS011;35752;52.164;21.244;2023-01-28T08:35:29;44.47;;;23.38;;
49854;SDS011;35752;52.164;21.244;2023-01-28T08:37:58;44.88;;;23.65;;
49854;SDS011;35752;52.164;21.244;2023-01-28T08:40:25;40.38;;;21.55;;
49854;SDS011;35752;52.164;21.244;2023-01-28T08:42:51;41.80;;;21.90;;
49854;SDS011;35752;52.164;21.244;2023-01-28T08:45:19;43.95;;;23.15;;
49854;SDS011;35752;52.164;21.244;2023-01-28T08:47:47;44.53;;;23.15;;
49854;SDS011;35752;52.164;21.244;2023-01-28T08:50:14;40.95;;;21.67;;
49854;SDS011;35752;52.164;21.244;2023-01-28T08:52:41;41.03;;;21.70;;
49854;SDS011;35752;52.164;21.244;2023-01-28T08:55:08;39.35;;;20.92;;
49854;SDS011;35752;52.164;21.244;2023-01-28T08:57:35;40.55;;;21.95;;
49854;SDS011;35752;52.164;21.244;2023-01-28T09:00:01;38.72;;;20.42;;
49854;SDS011;35752;52.164;21.244;2023-01-28T09:02:26;37.88;;;21.02;;
49854;SDS011;35752;52.164;21.244;2023-01-28T09:04:52;42.85;;;22.02;;
49854;SDS011;35752;52.164;21.244;2023-01-28T09:07:18;38.28;;;20.90;;
49854;SDS011;35752;52.164;21.244;2023-01-28T09:09:44;43.20;;;21.10;;
49854;SDS011;35752;52.164;21.244;2023-01-28T09:12:09;38.70;;;21.98;;
49854;SDS011;35752;52.164;21.244;2023-01-28T09:14:35;37.42;;;22.15;;
49854;SDS011;35752;52.164;21.244;2023-01-28T09:17:01;41.13;;;22.05;;
49854;SDS011;35752;52.164;21.244;2023-01-28T09:19:28;39.33;;;21.52;;
49854;SDS011;35752;52.164;21.244;2023-01-28T09:21:54;46.35;;;25.10;;
49854;SDS011;35752;52.164;21.244;2023-01-28T09:24:20;41.50;;;22.20;;
49854;SDS011;35752;52.164;21.244;2023-01-28T09:26:47;38.60;;;20.60;;
49854;SDS011;35752;52.164;21.244;2023-01-28T09:29:13;33.33;;;20.90;;
49854;SDS011;35752;52.164;21.244;2023-01-28T09:31:39;38.47;;;21.83;;
49854;SDS011;35752;52.164;21.244;2023-01-28T09:34:06;40.78;;;20.77;;
49854;SDS011;35752;52.164;21.244;2023-01-28T09:36:32;42.78;;;22.25;;
49854;SDS011;35752;52.164;21.244;2023-01-28T09:38:58;39.83;;;21.30;;
49854;SDS011;35752;52.164;21.244;2023-01-28T09:46:49;42.70;;;23.98;;
49854;SDS011;35752;52.164;21.244;2023-01-28T09:49:20;37.13;;;22.25;;
49854;SDS011;35752;52.164;21.244;2023-01-28T09:51:56;37.67;;;20.85;;
49854;SDS011;35752;52.164;21.244;2023-01-28T09:54:39;38.72;;;21.95;;
49854;SDS011;35752;52.164;21.244;2023-01-28T09:57:21;36.20;;;22.23;;
49854;SDS011;35752;52.164;21.244;2023-01-28T09:59:49;42.38;;;22.23;;
49854;SDS011;35752;52.164;21.244;2023-01-28T10:07:49;35.97;;;21.60;;
49854;SDS011;35752;52.164;21.244;2023-01-28T10:18:38;41.33;;;21.38;;
49854;SDS011;35752;52.164;21.244;2023-01-28T10:21:38;36.60;;;21.65;;
49854;SDS011;35752;52.164;21.244;2023-01-28T10:24:15;40.45;;;22.45;;
49854;SDS011;35752;52.164;21.244;2023-01-28T10:26:46;39.72;;;23.15;;
49854;SDS011;35752;52.164;21.244;2023-01-28T10:29:18;45.85;;;24.85;;
49854;SDS011;35752;52.164;21.244;2023-01-28T10:34:41;43.70;;;23.17;;
49854;SDS011;35752;52.164;21.244;2023-01-28T10:37:08;43.42;;;23.73;;
49854;SDS011;35752;52.164;21.244;2023-01-28T10:39:37;40.72;;;22.55;;
49854;SDS011;35752;52.164;21.244;2023-01-28T10:42:10;41.75;;;25.17;;
49854;SDS011;35752;52.164;21.244;2023-01-28T10:44:44;38.05;;;23.77;;
49854;SDS011;35752;52.164;21.244;2023-01-28T10:47:13;39.35;;;22.67;;
49854;SDS011;35752;52.164;21.244;2023-01-28T10:49:47;34.03;;;21.98;;
49854;SDS011;35752;52.164;21.244;2023-01-28T10:52:17;32.38;;;20.70;;
49854;SDS011;35752;52.164;21.244;2023-01-28T10:54:42;33.90;;;22.15;;
49854;SDS011;35752;52.164;21.244;2023-01-28T10:57:12;38.95;;;23.15;;
49854;SDS011;35752;52.164;21.244;2023-01-28T10:59:40;33.33;;;21.05;;
49854;SDS011;35752;52.164;21.244;2023-01-28T11:05:00;31.23;;;20.80;;
49854;SDS011;35752;52.164;21.244;2023-01-28T11:07:27;29.85;;;18.50;;
49854;SDS011;35752;52.164;21.244;2023-01-28T11:09:53;28.90;;;19.10;;
49854;SDS011;35752;52.164;21.244;2023-01-28T11:12:20;30.08;;;19.85;;
49854;SDS011;35752;52.164;21.244;2023-01-28T11:14:54;28.95;;;19.52;;
49854;SDS011;35752;52.164;21.244;2023-01-28T11:17:22;31.00;;;21.65;;
49854;SDS011;35752;52.164;21.244;2023-01-28T11:19:53;31.52;;;20.98;;
49854;SDS011;35752;52.164;21.244;2023-01-28T11:24:46;27.50;;;18.52;;
49854;SDS011;35752;52.164;21.244;2023-01-28T11:27:14;30.33;;;20.23;;
49854;SDS011;35752;52.164;21.244;2023-01-28T11:29:41;30.38;;;18.63;;
49854;SDS011;35752;52.164;21.244;2023-01-28T11:32:20;28.52;;;19.33;;
49854;SDS011;35752;52.164;21.244;2023-01-28T11:34:51;30.30;;;20.52;;
